Terminal Aerodrome Forecast
Issued by NWS

Home | Current Version | Previous Version | Text Only | Print | Product List | Glossary On
Versions: 1 2 3 4 5 6 7 8 9 10 11 12 13 14 15 16 17 18 19 20 21 22 23 24
701
FTUS41 KCAR 042329
TAFHUL
TAF
KHUL 042329Z 0500/0524 11006KT P6SM SCT025 OVC040
     FM050300 10007KT P6SM -SHRA OVC022
     FM050600 08006KT 5SM -RA OVC010
     FM051300 07007KT P6SM VCSH OVC015
     FM051800 05008KT P6SM OVC025=

USA.gov is the U.S. government's official web portal to all federal, state and local government web resources and services.